Fascination — C6FM9 — position and weather

sailwx.info

Track history (hours):
 
Tides and Currents Weather Stations Pressure Air Temp Water Temp Dewpoint Dewpoint Depression Visibility Wind Speed Wind Dir Waves Ship Positions

Fascination

Operator: Carnival Cruise Lines

Last reported at 2017-Aug-20 15:29 UTC. Time now 2017-Aug-20 15:37 UTC.
Position N 18°28' W 066°07'.

Type: Ship. MMSI: 309682000.

Date/timePositionNaut miles runAvg speedWind from/ knotsBaromVisibWave heightAir tempDewpointWater temp
2017-Aug-20 15:29N 18°28' W 066°07'18 1.9
2017-Aug-20 06:00N 18°30' W 065°48'5335.2 090 / 221018.310.8 27.024.128.0
2017-Aug-20 04:29N 18°11' W 064°56'22 4.9
2017-Aug-20 00:00N 18°00' W 064°36'51150.9 060 / 161017.210.8 28.025.229.0
2017-Aug-19 23:39N 18°02' W 063°43'314.9
2017-Aug-19 23:28N 18°02' W 063°40'715.2
2017-Aug-19 23:00N 18°02' W 063°32'814.8
2017-Aug-19 22:28N 18°01' W 063°24'715.7
2017-Aug-19 22:00N 18°01' W 063°16'815.3
2017-Aug-19 21:30N 18°01' W 063°08'5 4.7
2017-Aug-19 20:22N 18°01' W 063°03'0 0.0
2017-Aug-19 19:51N 18°01' W 063°03'0 0.0
2017-Aug-19 19:30N 18°01' W 063°03'0 0.0
2017-Aug-19 18:57N 18°01' W 063°03'0 0.0
2017-Aug-19 13:55N 18°01' W 063°03'0 0.0
2017-Aug-19 10:53N 18°01' W 063°03'0 0.8
2017-Aug-19 10:28N 18°00' W 063°03'3 6.8
2017-Aug-19 09:59N 18°00' W 063°07'5 9.0
2017-Aug-19 09:29N 18°01' W 063°12'4 8.8
2017-Aug-19 08:59N 18°01' W 063°16'5 9.2
2017-Aug-19 08:27N 18°01' W 063°21'4 9.2
2017-Aug-19 08:00N 18°02' W 063°26'5 8.9
2017-Aug-19 07:29N 18°02' W 063°30'4 8.8
2017-Aug-19 07:00N 18°02' W 063°35'4 8.8
2017-Aug-19 06:30N 18°02' W 063°39'3 6.5
2017-Aug-19 06:00N 18°00' W 063°42'4 8.2 100 / 221019.310.8 29.024.827.0
2017-Aug-19 05:27N 17°56' W 063°43'7 8.0
2017-Aug-19 04:37N 17°53' W 063°37'2 8.7
2017-Aug-19 04:26N 17°53' W 063°35'4 9.0
2017-Aug-19 04:00N 17°53' W 063°31'5 9.2
2017-Aug-19 03:30N 17°52' W 063°26'5 9.7
2017-Aug-19 03:00N 17°52' W 063°21'5 9.8
2017-Aug-19 02:30N 17°51' W 063°16'5 9.5
2017-Aug-19 01:59N 17°48' W 063°12'5 9.3
2017-Aug-19 01:26N 17°44' W 063°08'4 9.9
2017-Aug-19 00:59N 17°40' W 063°07'5 9.4
2017-Aug-19 00:30N 17°35' W 063°07'1812.2
2017-Aug-18 23:00N 17°18' W 063°00'42 3.0 050 / 241016.210.8 28.025.229.0
2017-Aug-18 08:53N 16°45' W 062°33'615.7
2017-Aug-18 08:30N 16°40' W 062°30'815.6
2017-Aug-18 07:59N 16°32' W 062°26'18 6.1
2017-Aug-18 05:00N 16°48' W 062°36'14330.6 040 / 191017.310.8 28.025.227.0
2017-Aug-18 00:19N 14°41' W 061°28'1015.3
2017-Aug-17 23:40N 14°32' W 061°23'616.0
2017-Aug-17 23:20N 14°27' W 061°21'516.0
2017-Aug-17 22:59N 14°22' W 061°18'715.6
2017-Aug-17 22:30N 14°16' W 061°15'815.3
2017-Aug-17 22:00N 14°09' W 061°11'1412.0
2017-Aug-17 20:51N 14°01' W 060°60'0 0.0
2017-Aug-17 12:04N 14°01' W 060°60'0 0.0
2017-Aug-17 11:53N 14°01' W 060°60'0 0.5
2017-Aug-17 11:17N 14°01' W 060°60'2 7.1
2017-Aug-17 11:00N 14°02' W 061°02'4 7.5
2017-Aug-17 10:29N 14°01' W 061°06'28 8.0
2017-Aug-17 07:00N 13°36' W 061°18'6112.2 060 / 211019.310.8 28.025.227.0
2017-Aug-17 02:00N 13°18' W 060°18'37 1.9 070 / 171022.310.8 28.025.228.0
2017-Aug-16 07:00N 13°06' W 059°42'8321.2 240 / 191020.310.8 28.025.227.0
2017-Aug-16 03:05N 14°07' W 060°39'113.9
2017-Aug-16 03:00N 14°08' W 060°40'713.3
2017-Aug-16 02:30N 14°13' W 060°45'713.4
2017-Aug-16 02:00N 14°14' W 060°52'713.4
2017-Aug-16 01:30N 14°15' W 060°58'713.5
2017-Aug-16 01:00N 14°17' W 061°05'713.6
2017-Aug-16 00:30N 14°18' W 061°12'713.9
2017-Aug-16 00:00N 14°23' W 061°18'714.0
2017-Aug-15 23:30N 14°27' W 061°23'713.9
2017-Aug-15 23:00N 14°32' W 061°29'714.1
2017-Aug-15 22:30N 14°37' W 061°34'2811.3
2017-Aug-15 20:00N 14°18' W 061°12'14524.2 210 / 181018.3 5.4 30.024.328.0
2017-Aug-15 14:01N 16°02' W 062°56'15538.5
2017-Aug-15 10:00N 18°36' W 063°18'10927.2 220 / 271019.3 5.4 28.025.228.0
2017-Aug-15 06:00N 16°48' W 063°30'6716.8 250 / 261019.310.8 28.025.227.0
2017-Aug-15 02:00N 17°42' W 064°12'3813.5 230 / 261020.310.8 28.025.228.0
2017-Aug-14 23:10N 18°05' W 064°44'311.6
2017-Aug-14 22:57N 18°06' W 064°46'511.7
2017-Aug-14 22:30N 18°09' W 064°51'511.0
2017-Aug-14 22:00N 18°13' W 064°55'5 0.5
2017-Aug-14 11:00N 18°18' W 064°54'21 4.2 020 / 71021.327.0 28.025.229.5
2017-Aug-14 06:00N 18°30' W 065°12'4619.5 230 / 201021.310.8 28.025.227.0
2017-Aug-14 03:37N 18°36' W 066°00'112.8
2017-Aug-14 03:30N 18°36' W 066°02'6 9.9
2017-Aug-14 02:55N 18°32' W 066°06'3 6.4
2017-Aug-14 02:29N 18°29' W 066°08'2 4.1
2017-Aug-14 02:00N 18°28' W 066°07'0 0.0
2017-Aug-14 01:29N 18°28' W 066°07'0 0.0
2017-Aug-14 00:59N 18°28' W 066°07'0 0.0
2017-Aug-14 00:26N 18°28' W 066°07'0 0.0
2017-Aug-13 23:56N 18°28' W 066°07'0 0.0
2017-Aug-13 23:25N 18°28' W 066°07'4 8.9
2017-Aug-13 23:00N 18°24' W 066°06'4176.0 090 / 161020.327.0 29.026.229.0
2017-Aug-13 22:58N 18°28' W 066°07'0 0.0
2017-Aug-13 22:28N 18°28' W 066°07'0 0.0
2017-Aug-13 21:58N 18°28' W 066°07'0 0.0
2017-Aug-13 21:25N 18°28' W 066°07'0 0.0
2017-Aug-13 20:54N 18°28' W 066°07'0 0.0
2017-Aug-13 20:27N 18°28' W 066°07'0 0.0
2017-Aug-13 20:00N 18°28' W 066°07'0 0.0
2017-Aug-13 19:30N 18°28' W 066°07'0 0.0
2017-Aug-13 18:59N 18°28' W 066°07'0 0.0
2017-Aug-13 18:29N 18°28' W 066°07'0 0.0
2017-Aug-13 17:59N 18°28' W 066°07'0 0.0
2017-Aug-13 17:17N 18°28' W 066°07'0 0.0
2017-Aug-13 16:59N 18°28' W 066°07'0 0.0
2017-Aug-13 16:28N 18°28' W 066°07'0 0.0
2017-Aug-13 15:58N 18°28' W 066°07'0 0.0
2017-Aug-13 15:22N 18°28' W 066°07'0 0.0
2017-Aug-13 14:58N 18°28' W 066°07'0 0.0
2017-Aug-13 14:31N 18°28' W 066°07'0 0.0
2017-Aug-13 14:00N 18°28' W 066°07'0 0.0
2017-Aug-13 13:30N 18°28' W 066°07'0 0.0
2017-Aug-13 13:00N 18°28' W 066°07'0 0.0
2017-Aug-13 12:27N 18°28' W 066°07'0 0.0
2017-Aug-13 11:59N 18°28' W 066°07'0 0.0
2017-Aug-13 11:29N 18°28' W 066°07'0 0.0
2017-Aug-13 10:59N 18°28' W 066°07'1 1.2
2017-Aug-13 10:30N 18°27' W 066°07'4 8.0
2017-Aug-13 10:00N 18°31' W 066°07'714.0
2017-Aug-13 09:30N 18°36' W 066°01'714.2
2017-Aug-13 09:00N 18°39' W 065°55'5116.8
2017-Aug-13 06:00N 18°18' W 065°06'12 7.2 120 / 191020.310.8 28.025.227.0
2017-Aug-13 04:18N 18°10' W 064°56'3214.0
2017-Aug-13 02:00N 18°00' W 064°24'4316.4 030 / 181020.310.8 28.025.228.0
2017-Aug-12 23:20N 18°02' W 063°38'515.8
2017-Aug-12 23:00N 18°02' W 063°33'815.6
2017-Aug-12 22:30N 18°01' W 063°24'815.7
2017-Aug-12 22:01N 18°01' W 063°16'815.2
2017-Aug-12 21:27N 18°01' W 063°08'510.0
2017-Aug-12 21:00N 18°00' W 063°03'0 0.0
2017-Aug-12 14:39N 18°01' W 063°03'0 0.0
2017-Aug-12 14:21N 18°01' W 063°03'0 0.0
2017-Aug-12 13:45N 18°01' W 063°03'0 0.0
2017-Aug-12 10:42N 18°01' W 063°03'0 1.0
2017-Aug-12 10:29N 18°00' W 063°03'3 6.1
2017-Aug-12 09:59N 18°00' W 063°06'4 8.4
2017-Aug-12 09:30N 18°01' W 063°10'4 8.4
2017-Aug-12 09:00N 18°01' W 063°15'4 8.7
2017-Aug-12 08:30N 18°01' W 063°19'4 8.5
2017-Aug-12 08:00N 18°01' W 063°24'4 8.4
2017-Aug-12 07:30N 18°02' W 063°28'4 8.4
2017-Aug-12 07:00N 18°02' W 063°33'4 8.3
2017-Aug-12 06:29N 18°02' W 063°37'4 8.6
2017-Aug-12 06:00N 18°02' W 063°41'5 9.0
2017-Aug-12 05:30N 17°58' W 063°43'1223.3
2017-Aug-12 05:00N 17°48' W 063°36'7148.8 040 / 201020.310.8 28.025.227.0
2017-Aug-12 04:57N 17°54' W 063°41'4 8.9
2017-Aug-12 04:30N 17°53' W 063°37'5 9.0
2017-Aug-12 04:00N 17°53' W 063°32'4 8.9
2017-Aug-12 03:30N 17°52' W 063°28'4 8.9
2017-Aug-12 03:00N 17°52' W 063°23'5 8.6
2017-Aug-12 02:29N 17°52' W 063°18'4 8.7
2017-Aug-12 02:00N 17°50' W 063°14'4 8.7
2017-Aug-12 01:30N 17°47' W 063°11'510.8
2017-Aug-12 01:00N 17°42' W 063°08'713.7
2017-Aug-12 00:28N 17°35' W 063°07'29 2.2
2017-Aug-11 11:30N 17°17' W 062°43'3412.7
2017-Aug-11 08:50N 16°45' W 062°32'516.9
2017-Aug-11 08:31N 16°40' W 062°30'816.7
2017-Aug-11 08:01N 16°32' W 062°26'816.7
2017-Aug-11 07:30N 16°25' W 062°22'4216.9
2017-Aug-11 05:00N 15°48' W 062°00'3616.6 130 / 261020.310.8 28.025.227.0
2017-Aug-11 02:49N 15°15' W 061°46'1721.0
2017-Aug-11 02:00N 15°00' W 061°36'1311.5 120 / 181020.310.8 28.025.228.0
2017-Aug-11 00:53N 14°48' W 061°32'715.9
2017-Aug-11 00:27N 14°42' W 061°28'716.1
2017-Aug-11 00:00N 14°35' W 061°25'916.0
2017-Aug-10 23:27N 14°28' W 061°21'715.7
2017-Aug-10 23:00N 14°21' W 061°18'816.3
2017-Aug-10 22:31N 14°14' W 061°14'815.6
2017-Aug-10 22:00N 14°07' W 061°10'814.7
2017-Aug-10 21:29N 14°03' W 061°03'  
Track history (hours):
 
Tides and Currents Weather Stations Pressure Air Temp Water Temp Dewpoint Dewpoint Depression Visibility Wind Speed Wind Dir Waves Ship Positions

Fascination

Operator: Carnival Cruise Lines

Last reported at 2017-Aug-20 15:29 UTC. Time now 2017-Aug-20 15:37 UTC.
Position N 18°28' W 066°07'.

Type: Ship. MMSI: 309682000.

Date/timePositionNaut miles runAvg speedWind from/ knotsBaromVisibWave heightAir tempDewpointWater temp
2017-Aug-20 15:29N 18°28' W 066°07'18 1.9
2017-Aug-20 06:00N 18°30' W 065°48'5335.2 090 / 221018.310.8 27.024.128.0
2017-Aug-20 04:29N 18°11' W 064°56'22 4.9
2017-Aug-20 00:00N 18°00' W 064°36'51150.9 060 / 161017.210.8 28.025.229.0
2017-Aug-19 23:39N 18°02' W 063°43'314.9
2017-Aug-19 23:28N 18°02' W 063°40'715.2
2017-Aug-19 23:00N 18°02' W 063°32'814.8
2017-Aug-19 22:28N 18°01' W 063°24'715.7
2017-Aug-19 22:00N 18°01' W 063°16'815.3
2017-Aug-19 21:30N 18°01' W 063°08'5 4.7
2017-Aug-19 20:22N 18°01' W 063°03'0 0.0
2017-Aug-19 19:51N 18°01' W 063°03'0 0.0
2017-Aug-19 19:30N 18°01' W 063°03'0 0.0
2017-Aug-19 18:57N 18°01' W 063°03'0 0.0
2017-Aug-19 13:55N 18°01' W 063°03'0 0.0
2017-Aug-19 10:53N 18°01' W 063°03'0 0.8
2017-Aug-19 10:28N 18°00' W 063°03'3 6.8
2017-Aug-19 09:59N 18°00' W 063°07'5 9.0
2017-Aug-19 09:29N 18°01' W 063°12'4 8.8
2017-Aug-19 08:59N 18°01' W 063°16'5 9.2
2017-Aug-19 08:27N 18°01' W 063°21'4 9.2
2017-Aug-19 08:00N 18°02' W 063°26'5 8.9
2017-Aug-19 07:29N 18°02' W 063°30'4 8.8
2017-Aug-19 07:00N 18°02' W 063°35'4 8.8
2017-Aug-19 06:30N 18°02' W 063°39'3 6.5
2017-Aug-19 06:00N 18°00' W 063°42'4 8.2 100 / 221019.310.8 29.024.827.0
2017-Aug-19 05:27N 17°56' W 063°43'7 8.0
2017-Aug-19 04:37N 17°53' W 063°37'2 8.7
2017-Aug-19 04:26N 17°53' W 063°35'4 9.0
2017-Aug-19 04:00N 17°53' W 063°31'5 9.2
2017-Aug-19 03:30N 17°52' W 063°26'5 9.7
2017-Aug-19 03:00N 17°52' W 063°21'5 9.8
2017-Aug-19 02:30N 17°51' W 063°16'5 9.5
2017-Aug-19 01:59N 17°48' W 063°12'5 9.3
2017-Aug-19 01:26N 17°44' W 063°08'4 9.9
2017-Aug-19 00:59N 17°40' W 063°07'5 9.4
2017-Aug-19 00:30N 17°35' W 063°07'1812.2
2017-Aug-18 23:00N 17°18' W 063°00'42 3.0 050 / 241016.210.8 28.025.229.0
2017-Aug-18 08:53N 16°45' W 062°33'615.7
2017-Aug-18 08:30N 16°40' W 062°30'815.6
2017-Aug-18 07:59N 16°32' W 062°26'18 6.1
2017-Aug-18 05:00N 16°48' W 062°36'14330.6 040 / 191017.310.8 28.025.227.0
2017-Aug-18 00:19N 14°41' W 061°28'1015.3
2017-Aug-17 23:40N 14°32' W 061°23'616.0
2017-Aug-17 23:20N 14°27' W 061°21'516.0
2017-Aug-17 22:59N 14°22' W 061°18'715.6
2017-Aug-17 22:30N 14°16' W 061°15'815.3
2017-Aug-17 22:00N 14°09' W 061°11'1412.0
2017-Aug-17 20:51N 14°01' W 060°60'0 0.0
2017-Aug-17 12:04N 14°01' W 060°60'0 0.0
2017-Aug-17 11:53N 14°01' W 060°60'0 0.5
2017-Aug-17 11:17N 14°01' W 060°60'2 7.1
2017-Aug-17 11:00N 14°02' W 061°02'4 7.5
2017-Aug-17 10:29N 14°01' W 061°06'28 8.0
2017-Aug-17 07:00N 13°36' W 061°18'6112.2 060 / 211019.310.8 28.025.227.0
2017-Aug-17 02:00N 13°18' W 060°18'37 1.9 070 / 171022.310.8 28.025.228.0
2017-Aug-16 07:00N 13°06' W 059°42'8321.2 240 / 191020.310.8 28.025.227.0
2017-Aug-16 03:05N 14°07' W 060°39'113.9
2017-Aug-16 03:00N 14°08' W 060°40'713.3
2017-Aug-16 02:30N 14°13' W 060°45'713.4
2017-Aug-16 02:00N 14°14' W 060°52'713.4
2017-Aug-16 01:30N 14°15' W 060°58'713.5
2017-Aug-16 01:00N 14°17' W 061°05'713.6
2017-Aug-16 00:30N 14°18' W 061°12'713.9
2017-Aug-16 00:00N 14°23' W 061°18'714.0
2017-Aug-15 23:30N 14°27' W 061°23'713.9
2017-Aug-15 23:00N 14°32' W 061°29'714.1
2017-Aug-15 22:30N 14°37' W 061°34'2811.3
2017-Aug-15 20:00N 14°18' W 061°12'14524.2 210 / 181018.3 5.4 30.024.328.0
2017-Aug-15 14:01N 16°02' W 062°56'15538.5
2017-Aug-15 10:00N 18°36' W 063°18'10927.2 220 / 271019.3 5.4 28.025.228.0
2017-Aug-15 06:00N 16°48' W 063°30'6716.8 250 / 261019.310.8 28.025.227.0
2017-Aug-15 02:00N 17°42' W 064°12'3813.5 230 / 261020.310.8 28.025.228.0
2017-Aug-14 23:10N 18°05' W 064°44'311.6
2017-Aug-14 22:57N 18°06' W 064°46'511.7
2017-Aug-14 22:30N 18°09' W 064°51'511.0
2017-Aug-14 22:00N 18°13' W 064°55'5 0.5
2017-Aug-14 11:00N 18°18' W 064°54'21 4.2 020 / 71021.327.0 28.025.229.5
2017-Aug-14 06:00N 18°30' W 065°12'4619.5 230 / 201021.310.8 28.025.227.0
2017-Aug-14 03:37N 18°36' W 066°00'112.8
2017-Aug-14 03:30N 18°36' W 066°02'6 9.9
2017-Aug-14 02:55N 18°32' W 066°06'3 6.4
2017-Aug-14 02:29N 18°29' W 066°08'2 4.1
2017-Aug-14 02:00N 18°28' W 066°07'0 0.0
2017-Aug-14 01:29N 18°28' W 066°07'0 0.0
2017-Aug-14 00:59N 18°28' W 066°07'0 0.0
2017-Aug-14 00:26N 18°28' W 066°07'0 0.0
2017-Aug-13 23:56N 18°28' W 066°07'0 0.0
2017-Aug-13 23:25N 18°28' W 066°07'4 8.9
2017-Aug-13 23:00N 18°24' W 066°06'4176.0 090 / 161020.327.0 29.026.229.0
2017-Aug-13 22:58N 18°28' W 066°07'0 0.0
2017-Aug-13 22:28N 18°28' W 066°07'0 0.0
2017-Aug-13 21:58N 18°28' W 066°07'0 0.0
2017-Aug-13 21:25N 18°28' W 066°07'0 0.0
2017-Aug-13 20:54N 18°28' W 066°07'0 0.0
2017-Aug-13 20:27N 18°28' W 066°07'0 0.0
2017-Aug-13 20:00N 18°28' W 066°07'0 0.0
2017-Aug-13 19:30N 18°28' W 066°07'0 0.0
2017-Aug-13 18:59N 18°28' W 066°07'0 0.0
2017-Aug-13 18:29N 18°28' W 066°07'0 0.0
2017-Aug-13 17:59N 18°28' W 066°07'0 0.0
2017-Aug-13 17:17N 18°28' W 066°07'0 0.0
2017-Aug-13 16:59N 18°28' W 066°07'0 0.0
2017-Aug-13 16:28N 18°28' W 066°07'0 0.0
2017-Aug-13 15:58N 18°28' W 066°07'0 0.0
2017-Aug-13 15:22N 18°28' W 066°07'0 0.0
2017-Aug-13 14:58N 18°28' W 066°07'0 0.0
2017-Aug-13 14:31N 18°28' W 066°07'0 0.0
2017-Aug-13 14:00N 18°28' W 066°07'0 0.0
2017-Aug-13 13:30N 18°28' W 066°07'0 0.0
2017-Aug-13 13:00N 18°28' W 066°07'0 0.0
2017-Aug-13 12:27N 18°28' W 066°07'0 0.0
2017-Aug-13 11:59N 18°28' W 066°07'0 0.0
2017-Aug-13 11:29N 18°28' W 066°07'0 0.0
2017-Aug-13 10:59N 18°28' W 066°07'1 1.2
2017-Aug-13 10:30N 18°27' W 066°07'4 8.0
2017-Aug-13 10:00N 18°31' W 066°07'714.0
2017-Aug-13 09:30N 18°36' W 066°01'714.2
2017-Aug-13 09:00N 18°39' W 065°55'5116.8
2017-Aug-13 06:00N 18°18' W 065°06'12 7.2 120 / 191020.310.8 28.025.227.0
2017-Aug-13 04:18N 18°10' W 064°56'3214.0
2017-Aug-13 02:00N 18°00' W 064°24'4316.4 030 / 181020.310.8 28.025.228.0
2017-Aug-12 23:20N 18°02' W 063°38'515.8
2017-Aug-12 23:00N 18°02' W 063°33'815.6
2017-Aug-12 22:30N 18°01' W 063°24'815.7
2017-Aug-12 22:01N 18°01' W 063°16'815.2
2017-Aug-12 21:27N 18°01' W 063°08'510.0
2017-Aug-12 21:00N 18°00' W 063°03'0 0.0
2017-Aug-12 14:39N 18°01' W 063°03'0 0.0
2017-Aug-12 14:21N 18°01' W 063°03'0 0.0
2017-Aug-12 13:45N 18°01' W 063°03'0 0.0
2017-Aug-12 10:42N 18°01' W 063°03'0 1.0
2017-Aug-12 10:29N 18°00' W 063°03'3 6.1
2017-Aug-12 09:59N 18°00' W 063°06'4 8.4
2017-Aug-12 09:30N 18°01' W 063°10'4 8.4
2017-Aug-12 09:00N 18°01' W 063°15'4 8.7
2017-Aug-12 08:30N 18°01' W 063°19'4 8.5
2017-Aug-12 08:00N 18°01' W 063°24'4 8.4
2017-Aug-12 07:30N 18°02' W 063°28'4 8.4
2017-Aug-12 07:00N 18°02' W 063°33'4 8.3
2017-Aug-12 06:29N 18°02' W 063°37'4 8.6
2017-Aug-12 06:00N 18°02' W 063°41'5 9.0
2017-Aug-12 05:30N 17°58' W 063°43'1223.3
2017-Aug-12 05:00N 17°48' W 063°36'7148.8 040 / 201020.310.8 28.025.227.0
2017-Aug-12 04:57N 17°54' W 063°41'4 8.9
2017-Aug-12 04:30N 17°53' W 063°37'5 9.0
2017-Aug-12 04:00N 17°53' W 063°32'4 8.9
2017-Aug-12 03:30N 17°52' W 063°28'4 8.9
2017-Aug-12 03:00N 17°52' W 063°23'5 8.6
2017-Aug-12 02:29N 17°52' W 063°18'4 8.7
2017-Aug-12 02:00N 17°50' W 063°14'4 8.7
2017-Aug-12 01:30N 17°47' W 063°11'510.8
2017-Aug-12 01:00N 17°42' W 063°08'713.7
2017-Aug-12 00:28N 17°35' W 063°07'29 2.2
2017-Aug-11 11:30N 17°17' W 062°43'3412.7
2017-Aug-11 08:50N 16°45' W 062°32'516.9
2017-Aug-11 08:31N 16°40' W 062°30'816.7
2017-Aug-11 08:01N 16°32' W 062°26'816.7
2017-Aug-11 07:30N 16°25' W 062°22'4216.9
2017-Aug-11 05:00N 15°48' W 062°00'3616.6 130 / 261020.310.8 28.025.227.0
2017-Aug-11 02:49N 15°15' W 061°46'1721.0
2017-Aug-11 02:00N 15°00' W 061°36'1311.5 120 / 181020.310.8 28.025.228.0
2017-Aug-11 00:53N 14°48' W 061°32'715.9
2017-Aug-11 00:27N 14°42' W 061°28'716.1
2017-Aug-11 00:00N 14°35' W 061°25'916.0
2017-Aug-10 23:27N 14°28' W 061°21'715.7
2017-Aug-10 23:00N 14°21' W 061°18'816.3
2017-Aug-10 22:31N 14°14' W 061°14'815.6
2017-Aug-10 22:00N 14°07' W 061°10'814.7
2017-Aug-10 21:29N 14°03' W 061°03'  

Dump ship's entire track history